Terminal Aerodrome Forecast
Issued by NWS

Home | Current Version | Previous Version | Text Only | Print | Product List | Glossary On
Versions: 1 2 3 4 5 6 7 8 9 10 11 12 13 14 15 16 17 18 19 20 21 22 23 24 25 26 27 28
000
FTUS43 KICT 230105 AAA
TAFHUT
TAF AMD
KHUT 230105Z 2301/2324 13011KT 2SM -DZ BR BKN014
      TEMPO 2303/2307 1SM -DZ BR BKN006
     FM230700 13006KT 1SM BR BKN004
     FM231400 14014KT 5SM -SHRA VCTS SCT007 OVC010CB=

USA.gov is the U.S. government's official web portal to all federal, state and local government web resources and services.